x

West Dixon Entrance (46205) Wave Buoy

4:00pm - Thu 25th Aug 2016 All times are PDT. -7 hours from GMT.

  • Sig Wave height 5.9ft
  • Peak Period 6s
  • Wind
    22mph, 27mph gusts
  • Sea Temp 60°f
  • Air Temp 60°f
  • Sea Pressure 1030.1mb
  • West Dixon Entrance
  • West Dixon Entrance

More Historic Weather Station data

Upgrade to MSW Pro to gain access to the past 30 days of data for over 8000 Wavebouys and Weather Stations around the globe.

Join Pro

Comparision Forecast

View Surf forecast
   
Thu 08/25 4:00pm 6ft 6s 22 27 mph 1030.1mb 60f 60f
3:00pm 6ft 6s 22 29 mph 1030.4mb 60f 60f
2:00pm 6ft 6s 27 29 mph 1030.6mb 60f 60f
1:00pm 6ft 6s 22 27 mph 1030.9mb 60f 60f
12:00pm 6ft 8s 18 22 mph 1031.6mb 60f 60f
11:00am 6ft 5s 22 27 mph 1031.6mb 60f 59f
10:00am 6ft 5s 22 27 mph 1032.1mb 60f 58f
9:00am 6.5ft 5s 22 27 mph 1032.2mb 60f 59f
8:00am 6.5ft 6s 22 27 mph 1032.6mb 60f 58f
7:00am 6.5ft 5s 25 29 mph 1032.7mb 60f 58f
6:00am 6.5ft 6s 22 27 mph 1033mb 60f 58f
5:00am 6ft 6s 22 29 mph 1033.1mb 60f 59f
4:00am 6ft 9s 25 29 mph 1033.2mb 60f 58f
3:00am 6ft 6s 22 27 mph 1033.5mb 60f 58f
2:00am 5.5ft 9s 22 27 mph 1033.8mb 60f 58f
1:00am  -   -  22
mph
1034.2mb - 59f
12:00am 6ft 6s 22 27 mph 1034.3mb 60f 59f
Wed 08/24 11:00pm 6ft 8s 25 29 mph 1034.3mb 61f 58f
10:00pm 6ft 8s 22 27 mph 1034.3mb 61f 58f
9:00pm 5.5ft 8s 22 27 mph 1034.4mb 61f 58f
8:00pm 6ft 8s 22 27 mph 1034.3mb 61f 59f
7:00pm 5.5ft 9s 20 25 mph 1034.5mb 61f 58f
6:00pm 5.5ft 9s 18 22 mph 1034.9mb 61f 58f
5:00pm 6ft 9s 20 22 mph 1035.1mb 61f 59f
4:00pm 6ft 8s 18 20 mph 1035.8mb 61f 59f
3:00pm 5.5ft 9s 18 22 mph 1036mb 61f 59f
2:00pm 5ft 9s 16 20 mph 1036.4mb 61f 58f
1:00pm 5.5ft 10s 18 20 mph 1036.3mb 61f 59f
12:00pm 5ft 9s 18 22 mph 1036.2mb 60f 59f
11:00am 5.5ft 10s 16 20 mph 1036mb 60f 59f
10:00am 6ft 10s 16 20 mph 1035.6mb 61f 58f
9:00am 5ft 10s 16 20 mph 1035.5mb 61f 58f
8:00am 5ft 10s 13 18 mph 1035.3mb 61f 59f
7:00am 5ft 10s 13 18 mph 1034.9mb 61f 59f
6:00am 5.5ft 10s 13 18 mph 1034.7mb 61f 59f
5:00am 5.5ft 8s 11 16 mph 1034.5mb 61f 58f
4:00am 5ft 9s 13 18 mph 1034.3mb 61f 59f
3:00am 6ft 10s 11 16 mph 1034mb 60f 59f
2:00am 6ft 9s 11 13 mph 1033.8mb 61f 58f
1:00am 5.5ft 10s 9 11 mph 1033.7mb 61f 57f
12:00am 5.5ft 10s 9
mph
1033.7mb 61f 57f
Tue 08/23 11:00pm 5.5ft 9s 4 7 mph 1033.5mb 60f 56f
10:00pm 5ft 10s 7 9 mph 1033.3mb 61f 57f
9:00pm 5ft 10s 4 7 mph 1032.7mb 61f 57f
8:00pm 4.5ft 11s 4 9 mph 1032.3mb 61f 58f
7:00pm 4.5ft 11s 7 9 mph 1031.9mb 61f 58f
6:00pm 4ft 11s 7 9 mph 1031.7mb 61f 58f
5:00pm 4.5ft 6s 7 9 mph 1031.5mb 61f 59f
4:00pm 4.5ft 6s 4 7 mph 1031.3mb 61f 59f
3:00pm 4ft 6s 4 7 mph 1031mb 61f 59f
2:00pm 3.5ft 14s 4 7 mph 1030.8mb 61f 59f
1:00pm 3.5ft 17s 4 7 mph 1030.5mb 60f 58f
12:00pm 3.5ft 14s 4 7 mph 1030mb 61f 58f
11:00am 3.5ft 17s 7
mph
1029.4mb 60f 58f
10:00am 3.5ft 17s 4 7 mph 1028.6mb 60f 58f
9:00am 3.5ft 14s 9 11 mph 1028.2mb 60f 58f
8:00am 3.5ft 17s 9
mph
1027.2mb 60f 59f
7:00am 3.5ft 14s 9 11 mph 1026.6mb 60f 59f
6:00am 3.5ft 14s 9 11 mph 1025.9mb 60f 59f
5:00am 3.5ft 6s 9
mph
1025.6mb 60f 60f
4:00am 4ft 14s 9
mph
1025mb 60f 60f
3:00am 3.5ft 14s 7 9 mph 1024.8mb 60f 60f
2:00am 3.5ft 6s 9 11 mph 1024.5mb 60f 60f
1:00am 3.5ft 15s 11 13 mph 1024.1mb 60f 60f
12:00am 3.5ft 15s 11 13 mph 1023.8mb 60f 60f
Mon 08/22 11:00pm 3.5ft 14s 11 13 mph 1023.7mb 59f 60f
10:00pm 3.5ft 14s 11 13 mph 1023.5mb 60f 60f
9:00pm 3.5ft 14s 11
mph
1022.9mb 59f 60f
8:00pm 3.5ft 15s 11 13 mph 1022.5mb 60f 60f
7:00pm 3.5ft 14s 11 13 mph 1022.2mb 60f 60f
6:00pm 3.5ft 15s 13 16 mph 1022mb 60f 60f
5:00pm 3.5ft 15s 13 16 mph 1022mb 60f 60f
4:00pm 3.5ft 16s 13 16 mph 1021.9mb 60f 60f
3:00pm 3.5ft 16s 11 13 mph 1021.7mb 60f 61f
2:00pm 3.5ft 16s 9 11 mph 1021.6mb 60f 60f
1:00pm 3.5ft 7s 9 11 mph 1021.3mb 60f 60f
12:00pm 3.5ft 16s 7 9 mph 1021.2mb 60f 60f
11:00am 4ft 14s 4 7 mph 1021mb 59f 60f
10:00am 4ft 6s 4
mph
1020.6mb 59f 60f
9:00am 4.5ft 16s 4 7 mph 1020.2mb 59f 59f
8:00am 4.5ft 6s 7 9 mph 1019.9mb 59f 59f
7:00am 4.5ft 6s 7 9 mph 1019.4mb 58f 59f
6:00am 5ft 6s 9 11 mph 1018.9mb 58f 59f
5:00am 5ft 7s 13 16 mph 1018.4mb 59f 59f
4:00am 5ft 6s 13 16 mph 1018.1mb 59f 59f
3:00am 6ft 7s 16 18 mph 1018mb 59f 59f
2:00am 5.5ft 7s 16 18 mph 1017.8mb 59f 59f
1:00am 5.5ft 7s 13 18 mph 1017.6mb 59f 59f